createdAt,value
2022-07-25T00:02:16.341Z,21.85
2022-07-25T00:04:46.722Z,21.78
2022-07-25T00:07:15.368Z,21.86
2022-07-25T00:09:44.159Z,21.87
2022-07-25T00:12:14.494Z,21.86
2022-07-25T00:14:42.864Z,21.81
2022-07-25T00:17:11.183Z,21.72
2022-07-25T00:19:39.643Z,21.69
2022-07-25T00:22:09.362Z,21.69
2022-07-25T00:24:37.632Z,21.66
2022-07-25T00:27:06.319Z,21.62
2022-07-25T00:29:34.690Z,21.27
2022-07-25T00:32:07.104Z,21.27
2022-07-25T00:34:35.529Z,21.06
2022-07-25T00:37:03.865Z,21.24
2022-07-25T00:39:35.760Z,21.26
2022-07-25T00:42:05.218Z,20.86
2022-07-25T00:44:34.436Z,20.70
2022-07-25T00:47:02.894Z,20.85
2022-07-25T00:49:31.281Z,20.71
2022-07-25T00:51:59.711Z,20.69
2022-07-25T00:54:28.041Z,21.06
2022-07-25T00:56:57.755Z,21.15
2022-07-25T00:59:26.065Z,21.13
2022-07-25T01:01:54.784Z,21.06
2022-07-25T01:04:23.205Z,21.01
2022-07-25T01:06:51.541Z,20.91
2022-07-25T01:09:20.387Z,20.77
2022-07-25T01:11:48.765Z,20.79
2022-07-25T01:14:18.466Z,20.77
2022-07-25T01:16:46.855Z,20.67
2022-07-25T01:19:15.182Z,20.74
2022-07-25T01:21:45.011Z,20.76
2022-07-25T01:24:13.431Z,20.71
2022-07-25T01:26:41.959Z,20.65
2022-07-25T01:29:10.356Z,20.62
2022-07-25T01:31:38.736Z,20.38
2022-07-25T01:34:07.344Z,20.26
2022-07-25T01:36:36.007Z,20.12
2022-07-25T01:39:05.835Z,20.22
2022-07-25T01:41:34.192Z,20.12
2022-07-25T01:44:02.743Z,20.21
2022-07-25T01:46:31.322Z,20.14
2022-07-25T01:48:59.752Z,20.11
2022-07-25T01:51:28.134Z,20.24
2022-07-25T01:53:56.436Z,20.04
2022-07-25T01:56:27.269Z,19.79
2022-07-25T01:58:58.700Z,19.72
2022-07-25T02:01:27.470Z,19.80
2022-07-25T02:03:55.838Z,20.20
2022-07-25T02:06:24.335Z,20.18
2022-07-25T02:08:52.701Z,20.13
2022-07-25T02:11:21.185Z,20.01
2022-07-25T02:13:50.902Z,19.99
2022-07-25T02:16:19.359Z,19.97
2022-07-25T02:18:57.541Z,19.94
2022-07-25T02:21:25.978Z,19.94
2022-07-25T02:23:54.321Z,19.94
2022-07-25T02:26:22.594Z,19.82
2022-07-25T02:28:52.503Z,19.85
2022-07-25T02:31:20.844Z,19.91
2022-07-25T02:33:49.154Z,19.77
2022-07-25T02:36:17.803Z,19.97
2022-07-25T02:38:46.270Z,19.89
2022-07-25T02:41:14.568Z,19.92
2022-07-25T02:43:42.913Z,19.87
2022-07-25T02:46:12.722Z,19.92
2022-07-25T02:48:41.355Z,19.74
2022-07-25T02:51:09.709Z,19.71
2022-07-25T02:53:56.762Z,19.89
2022-07-25T02:56:28.959Z,19.70
2022-07-25T02:58:58.693Z,19.72
2022-07-25T03:01:28.574Z,19.81
2022-07-25T03:03:57.144Z,19.64
2022-07-25T03:06:25.562Z,19.75
2022-07-25T03:08:53.872Z,19.68
2022-07-25T03:11:22.728Z,19.61
2022-07-25T03:13:51.134Z,19.65
2022-07-25T03:16:19.563Z,19.48
2022-07-25T03:18:49.275Z,19.77
2022-07-25T03:21:17.624Z,19.78
2022-07-25T03:23:50.434Z,19.69
2022-07-25T03:26:20.795Z,19.72
2022-07-25T03:28:49.132Z,19.63
2022-07-25T03:31:17.600Z,19.47
2022-07-25T03:33:46.075Z,19.45
2022-07-25T03:36:15.776Z,19.53
2022-07-25T03:38:44.233Z,19.40
2022-07-25T03:41:13.499Z,19.32
2022-07-25T03:43:42.000Z,19.46
2022-07-25T03:46:10.353Z,19.56
2022-07-25T03:48:38.930Z,19.40
2022-07-25T03:51:07.591Z,19.25
2022-07-25T03:53:57.561Z,19.19
2022-07-25T03:56:25.881Z,19.33
2022-07-25T03:58:54.237Z,19.38
2022-07-25T04:01:22.674Z,19.51
2022-07-25T04:03:51.050Z,19.53
2022-07-25T04:06:19.756Z,19.69
2022-07-25T04:08:49.361Z,19.62
2022-07-25T04:11:17.880Z,20.35
2022-07-25T04:13:46.274Z,21.38
2022-07-25T04:16:17.397Z,22.14
2022-07-25T04:18:51.130Z,21.83
2022-07-25T04:21:20.158Z,21.45
2022-07-25T04:23:50.509Z,22.17
2022-07-25T04:26:18.736Z,22.82
2022-07-25T04:28:46.955Z,23.06
2022-07-25T04:31:15.278Z,24.26
2022-07-25T04:33:44.202Z,24.90
2022-07-25T04:36:12.535Z,25.06
2022-07-25T04:38:40.883Z,25.60
2022-07-25T04:41:10.602Z,26.00
2022-07-25T04:43:39.133Z,25.72
2022-07-25T04:46:07.784Z,26.31
2022-07-25T04:48:36.240Z,26.15
2022-07-25T04:51:04.556Z,26.58
2022-07-25T04:53:34.323Z,27.36
2022-07-25T04:56:02.754Z,27.71
2022-07-25T04:58:32.499Z,27.84
2022-07-25T05:01:00.899Z,28.03
2022-07-25T05:03:29.346Z,28.15
2022-07-25T05:05:57.676Z,28.19
2022-07-25T05:08:25.963Z,27.83
2022-07-25T05:10:54.252Z,28.24
2022-07-25T05:13:22.796Z,27.98
2022-07-25T05:15:52.644Z,27.94
2022-07-25T05:18:21.574Z,27.80
2022-07-25T05:20:49.889Z,26.71
2022-07-25T05:23:18.204Z,26.23
2022-07-25T05:25:46.675Z,27.52
2022-07-25T05:28:15.869Z,28.17
2022-07-25T05:30:44.457Z,28.45
2022-07-25T05:33:14.122Z,28.42
2022-07-25T05:35:42.436Z,28.92
2022-07-25T05:38:10.917Z,28.79
2022-07-25T05:40:39.494Z,27.91
2022-07-25T05:43:07.828Z,27.03
2022-07-25T05:45:36.091Z,27.53
2022-07-25T05:48:04.403Z,27.37
2022-07-25T05:50:34.108Z,27.12
2022-07-25T05:53:02.295Z,27.30
2022-07-25T05:55:30.503Z,27.83
2022-07-25T05:57:58.793Z,27.38
2022-07-25T06:00:27.364Z,28.07
2022-07-25T06:02:59.359Z,27.91
2022-07-25T06:05:27.779Z,27.22
2022-07-25T06:07:57.470Z,27.22
2022-07-25T06:10:25.909Z,26.78
2022-07-25T06:12:54.338Z,26.11
2022-07-25T06:15:27.053Z,25.42
2022-07-25T06:17:55.938Z,25.72
2022-07-25T06:20:24.419Z,26.14
2022-07-25T06:22:53.793Z,26.27
2022-07-25T06:25:23.652Z,25.62
2022-07-25T06:27:51.914Z,25.92
2022-07-25T06:30:20.766Z,26.03
2022-07-25T06:32:49.414Z,26.21
2022-07-25T06:35:18.017Z,26.63
2022-07-25T06:37:46.430Z,26.54
2022-07-25T06:40:14.960Z,26.91
2022-07-25T06:42:45.871Z,26.69
2022-07-25T06:45:15.410Z,26.76
2022-07-25T06:47:44.484Z,27.56
2022-07-25T06:50:15.432Z,27.32
2022-07-25T06:52:44.195Z,27.13
2022-07-25T06:55:13.793Z,27.25
2022-07-25T06:57:44.212Z,27.77
2022-07-25T07:00:14.173Z,27.98
2022-07-25T07:02:50.178Z,27.36
2022-07-25T07:05:18.618Z,27.52
2022-07-25T07:07:47.983Z,28.57
2022-07-25T07:10:17.158Z,28.74
2022-07-25T07:12:46.880Z,28.89
2022-07-25T07:15:15.752Z,28.95
2022-07-25T07:17:44.513Z,29.17
2022-07-25T07:20:13.438Z,28.01
2022-07-25T07:22:46.641Z,28.75
2022-07-25T07:25:15.785Z,28.96
2022-07-25T07:27:45.945Z,28.78
2022-07-25T07:30:14.827Z,29.33
2022-07-25T07:32:43.375Z,29.64
2022-07-25T07:35:12.320Z,29.83
2022-07-25T07:37:43.586Z,29.83
2022-07-25T07:40:17.500Z,30.01
2022-07-25T07:42:49.364Z,30.14
2022-07-25T07:45:20.241Z,30.69
2022-07-25T07:47:49.430Z,30.16
2022-07-25T07:50:19.154Z,30.10
2022-07-25T07:55:45.444Z,30.06
2022-07-25T07:58:16.868Z,30.65
2022-07-25T08:00:47.694Z,30.57
2022-07-25T08:03:19.047Z,30.93
2022-07-25T08:05:49.138Z,31.09
2022-07-25T08:08:17.590Z,31.17
2022-07-25T08:10:48.488Z,30.78
2022-07-25T08:13:19.225Z,30.59
2022-07-25T08:15:50.225Z,31.48
2022-07-25T08:18:19.189Z,31.04
2022-07-25T08:20:47.537Z,31.39
2022-07-25T08:23:16.280Z,31.51
2022-07-25T08:25:45.030Z,31.41
2022-07-25T08:28:13.934Z,30.93
2022-07-25T08:30:43.996Z,31.37
2022-07-25T08:33:13.315Z,31.53
2022-07-25T08:35:42.744Z,31.66
2022-07-25T08:38:11.799Z,31.49
2022-07-25T08:40:40.335Z,31.83
2022-07-25T08:43:12.268Z,32.04
2022-07-25T08:45:46.114Z,32.60
2022-07-25T08:48:15.008Z,32.56
2022-07-25T08:50:43.492Z,32.94
2022-07-25T08:56:00.095Z,32.96
2022-07-25T08:58:28.716Z,32.79
2022-07-25T09:00:58.539Z,33.02
2022-07-25T09:03:28.003Z,33.07
2022-07-25T09:05:56.373Z,33.11
2022-07-25T09:08:24.714Z,33.45
2022-07-25T09:10:53.949Z,33.68
2022-07-25T09:13:23.668Z,33.66
2022-07-25T09:15:53.917Z,33.52
2022-07-25T09:18:26.099Z,33.62
2022-07-25T09:20:58.812Z,33.37
2022-07-25T09:23:32.171Z,33.38
2022-07-25T09:26:04.631Z,33.30
2022-07-25T09:28:33.441Z,33.14
2022-07-25T09:31:03.045Z,33.98
2022-07-25T09:33:33.229Z,33.38
2022-07-25T09:36:11.479Z,33.63
2022-07-25T09:38:39.825Z,33.58
2022-07-25T09:41:09.301Z,32.98
2022-07-25T09:43:38.562Z,33.45
2022-07-25T09:46:07.304Z,33.29
2022-07-25T09:48:38.195Z,33.92
2022-07-25T09:51:07.468Z,33.78
2022-07-25T09:53:37.246Z,33.94
2022-07-25T09:56:05.963Z,34.12
2022-07-25T09:58:34.364Z,33.89
2022-07-25T10:01:05.042Z,34.08
2022-07-25T10:03:46.573Z,34.23
2022-07-25T10:06:21.391Z,34.15
2022-07-25T10:08:50.464Z,33.89
2022-07-25T10:11:23.089Z,34.09
2022-07-25T10:13:51.960Z,34.54
2022-07-25T10:16:22.046Z,34.22
2022-07-25T10:18:53.727Z,33.95
2022-07-25T10:21:27.637Z,33.83
2022-07-25T10:24:01.330Z,34.24
2022-07-25T10:26:30.222Z,34.35
2022-07-25T10:28:59.059Z,34.51
2022-07-25T10:31:34.781Z,34.83
2022-07-25T10:34:06.353Z,34.64
2022-07-25T10:36:46.028Z,34.97
2022-07-25T10:39:17.099Z,34.63
2022-07-25T10:41:50.833Z,35.07
2022-07-25T10:44:19.124Z,35.27
2022-07-25T10:46:48.552Z,35.25
2022-07-25T10:49:29.262Z,34.70
2022-07-25T10:52:03.173Z,35.31
2022-07-25T10:57:21.042Z,35.19
2022-07-25T10:59:49.330Z,35.41
2022-07-25T11:02:19.182Z,34.94
2022-07-25T11:05:00.155Z,35.52
2022-07-25T11:07:28.953Z,35.90
2022-07-25T11:09:58.305Z,35.86
2022-07-25T11:12:26.892Z,35.48
2022-07-25T11:14:58.759Z,35.43
2022-07-25T11:17:27.159Z,35.30
2022-07-25T11:19:58.253Z,35.75
2022-07-25T11:22:27.886Z,36.22
2022-07-25T11:24:57.182Z,36.50
2022-07-25T11:27:27.221Z,36.05
2022-07-25T11:30:06.236Z,36.50
2022-07-25T11:32:39.911Z,35.85
2022-07-25T11:35:11.021Z,36.34
2022-07-25T11:37:40.954Z,36.32
2022-07-25T11:40:10.616Z,36.62
2022-07-25T11:45:29.458Z,36.39
2022-07-25T11:48:04.902Z,35.76
2022-07-25T11:50:35.685Z,35.89
2022-07-25T11:53:05.941Z,36.24
2022-07-25T11:55:36.876Z,36.54
2022-07-25T11:58:06.517Z,36.73
2022-07-25T12:00:35.265Z,36.53
2022-07-25T12:03:08.286Z,35.93
2022-07-25T12:05:38.298Z,36.31
2022-07-25T12:08:11.041Z,36.56
2022-07-25T12:10:40.314Z,36.82
2022-07-25T12:13:10.202Z,36.40
2022-07-25T12:15:39.874Z,36.03
2022-07-25T12:18:09.436Z,36.67
2022-07-25T12:20:40.470Z,36.97
2022-07-25T12:23:11.129Z,36.58
2022-07-25T12:25:40.923Z,36.60
2022-07-25T12:28:10.756Z,36.54
2022-07-25T12:30:39.941Z,36.51
2022-07-25T12:33:08.942Z,36.59
2022-07-25T12:35:38.933Z,36.71
2022-07-25T12:38:07.265Z,36.65
2022-07-25T12:40:35.708Z,36.54
2022-07-25T12:43:05.004Z,36.48
2022-07-25T12:45:33.423Z,36.74
2022-07-25T12:48:02.033Z,37.00
2022-07-25T12:50:30.428Z,36.55
2022-07-25T12:53:00.119Z,36.55
2022-07-25T12:55:28.833Z,36.72
2022-07-25T12:57:57.350Z,36.40
2022-07-25T13:00:26.145Z,36.55
2022-07-25T13:02:55.783Z,37.03
2022-07-25T13:05:25.553Z,37.27
2022-07-25T13:07:54.150Z,36.89
2022-07-25T13:10:23.866Z,36.48
2022-07-25T13:12:52.335Z,37.22
2022-07-25T13:15:23.314Z,36.70
2022-07-25T13:17:51.625Z,36.90
2022-07-25T13:20:19.934Z,36.65
2022-07-25T13:22:48.266Z,36.60
2022-07-25T13:25:16.730Z,36.82
2022-07-25T13:27:46.554Z,36.74
2022-07-25T13:30:15.483Z,37.09
2022-07-25T13:32:43.970Z,37.22
2022-07-25T13:35:12.294Z,36.92
2022-07-25T13:37:40.825Z,37.10
2022-07-25T13:40:09.853Z,37.10
2022-07-25T13:42:38.287Z,37.19
2022-07-25T13:45:09.788Z,37.59
2022-07-25T13:47:38.312Z,37.33
2022-07-25T13:50:08.245Z,37.25
2022-07-25T13:52:37.762Z,37.13
2022-07-25T13:55:06.997Z,36.95
2022-07-25T13:57:35.358Z,37.16
2022-07-25T14:00:04.298Z,36.80
2022-07-25T14:02:34.007Z,37.25
2022-07-25T14:05:04.334Z,37.02
2022-07-25T14:07:32.811Z,37.01
2022-07-25T14:10:01.206Z,36.93
2022-07-25T14:12:29.535Z,37.10
2022-07-25T14:14:58.074Z,37.35
2022-07-25T14:17:30.146Z,37.17
2022-07-25T14:20:00.355Z,37.25
2022-07-25T14:22:28.677Z,37.47
2022-07-25T14:24:57.111Z,37.11
2022-07-25T14:27:25.577Z,37.06
2022-07-25T14:29:54.227Z,36.83
2022-07-25T14:32:22.753Z,36.73
2022-07-25T14:34:52.517Z,36.84
2022-07-25T14:37:23.564Z,37.20
2022-07-25T14:39:52.207Z,37.08
2022-07-25T14:42:20.582Z,37.04
2022-07-25T14:44:48.905Z,37.46
2022-07-25T14:47:17.299Z,37.05
2022-07-25T14:49:45.687Z,37.45
2022-07-25T14:52:14.769Z,37.53
2022-07-25T14:54:44.486Z,37.36
2022-07-25T14:57:12.843Z,37.23
2022-07-25T14:59:41.201Z,36.99
2022-07-25T15:02:11.058Z,37.18
2022-07-25T15:04:39.405Z,37.46
2022-07-25T15:07:07.803Z,37.24
2022-07-25T15:09:36.284Z,37.17
2022-07-25T15:12:06.561Z,36.97
2022-07-25T15:14:35.752Z,37.05
2022-07-25T15:17:04.159Z,36.89
2022-07-25T15:19:32.584Z,37.13
2022-07-25T15:22:01.018Z,37.25
2022-07-25T15:24:29.527Z,37.27
2022-07-25T15:26:58.329Z,37.03
2022-07-25T15:29:28.631Z,37.02
2022-07-25T15:31:57.100Z,37.33
2022-07-25T15:34:25.567Z,37.26
2022-07-25T15:36:55.507Z,37.24
2022-07-25T15:39:24.486Z,37.23
2022-07-25T15:41:52.996Z,36.79
2022-07-25T15:44:21.432Z,36.83
2022-07-25T15:46:51.252Z,37.18
2022-07-25T15:49:19.870Z,36.93
2022-07-25T15:51:48.291Z,36.84
2022-07-25T15:54:16.744Z,37.19
2022-07-25T15:56:45.141Z,37.34
2022-07-25T15:59:14.698Z,37.10
2022-07-25T16:01:43.592Z,37.24
2022-07-25T16:04:13.467Z,36.85
2022-07-25T16:06:42.038Z,37.00
2022-07-25T16:09:12.382Z,37.24
2022-07-25T16:11:40.885Z,36.82
2022-07-25T16:14:09.982Z,37.69
2022-07-25T16:16:38.612Z,37.45
2022-07-25T16:19:09.729Z,36.83
2022-07-25T16:21:39.975Z,36.64
2022-07-25T16:24:09.479Z,36.82
2022-07-25T16:26:38.327Z,37.18
2022-07-25T16:29:07.256Z,36.95
2022-07-25T16:31:36.025Z,37.23
2022-07-25T16:34:04.608Z,37.05
2022-07-25T16:36:33.271Z,36.76
2022-07-25T16:39:03.619Z,36.90
2022-07-25T16:41:32.185Z,36.59
2022-07-25T16:44:00.634Z,36.71
2022-07-25T16:46:29.077Z,36.74
2022-07-25T16:48:57.599Z,37.03
2022-07-25T16:51:26.104Z,36.63
2022-07-25T16:53:54.616Z,36.93
2022-07-25T16:56:24.499Z,36.95
2022-07-25T16:58:53.869Z,36.66
2022-07-25T17:01:22.441Z,36.63
2022-07-25T17:03:50.993Z,36.88
2022-07-25T17:06:19.878Z,36.68
2022-07-25T17:08:48.369Z,37.18
2022-07-25T17:11:16.827Z,37.14
2022-07-25T17:13:46.710Z,37.35
2022-07-25T17:16:15.238Z,37.34
2022-07-25T17:18:43.697Z,37.38
2022-07-25T17:21:15.266Z,37.41
2022-07-25T17:23:43.648Z,37.04
2022-07-25T17:26:12.189Z,36.83
2022-07-25T17:28:41.448Z,36.96
2022-07-25T17:31:11.054Z,36.44
2022-07-25T17:33:39.154Z,36.06
2022-07-25T17:36:07.895Z,35.81
2022-07-25T17:38:36.454Z,35.65
2022-07-25T17:41:05.556Z,35.99
2022-07-25T17:43:33.998Z,36.38
2022-07-25T17:46:02.469Z,35.31
2022-07-25T17:48:32.427Z,34.89
2022-07-25T17:51:00.858Z,34.16
2022-07-25T17:53:29.224Z,33.91
2022-07-25T17:55:57.632Z,33.30
2022-07-25T17:58:26.151Z,33.05
2022-07-25T18:00:59.564Z,32.88
2022-07-25T18:03:29.684Z,32.68
2022-07-25T18:06:00.176Z,32.84
2022-07-25T18:08:30.542Z,32.70
2022-07-25T18:10:59.027Z,32.74
2022-07-25T18:13:27.701Z,31.94
2022-07-25T18:15:56.291Z,31.54
2022-07-25T18:18:24.803Z,31.31
2022-07-25T18:20:53.297Z,31.16
2022-07-25T18:23:24.282Z,31.17
2022-07-25T18:25:53.576Z,31.13
2022-07-25T18:28:22.292Z,31.19
2022-07-25T18:30:55.048Z,31.28
2022-07-25T18:33:23.290Z,31.24
2022-07-25T18:35:52.207Z,30.81
2022-07-25T18:38:22.357Z,31.07
2022-07-25T18:41:01.752Z,31.04
2022-07-25T18:43:39.331Z,31.04
2022-07-25T18:46:10.192Z,30.79
2022-07-25T18:48:38.839Z,30.76
2022-07-25T18:51:07.638Z,30.77
2022-07-25T18:53:37.952Z,30.74
2022-07-25T18:56:07.103Z,30.79
2022-07-25T18:58:36.311Z,30.78
2022-07-25T19:01:04.987Z,30.74
2022-07-25T19:03:34.927Z,30.61
2022-07-25T19:06:03.841Z,30.55
2022-07-25T19:08:33.500Z,30.30
2022-07-25T19:11:03.245Z,30.50
2022-07-25T19:13:48.699Z,30.34
2022-07-25T19:16:17.744Z,30.40
2022-07-25T19:18:46.301Z,30.45
2022-07-25T19:21:15.311Z,30.48
2022-07-25T19:23:49.799Z,30.33
2022-07-25T19:26:21.136Z,30.10
2022-07-25T19:28:50.107Z,30.12
2022-07-25T19:31:18.658Z,29.81
2022-07-25T19:33:47.324Z,29.80
2022-07-25T19:36:15.769Z,29.53
2022-07-25T19:38:44.198Z,29.41
2022-07-25T19:41:12.601Z,29.19
2022-07-25T19:43:42.524Z,29.63
2022-07-25T19:46:10.980Z,29.37
2022-07-25T19:48:39.632Z,29.68
2022-07-25T19:51:08.120Z,29.55
2022-07-25T19:53:36.621Z,29.38
2022-07-25T19:56:06.695Z,29.16
2022-07-25T19:58:38.642Z,28.89
2022-07-25T20:01:08.923Z,29.10
2022-07-25T20:03:37.358Z,29.17
2022-07-25T20:06:08.333Z,29.03
2022-07-25T20:08:39.540Z,28.70
2022-07-25T20:11:08.321Z,28.40
2022-07-25T20:13:36.951Z,28.74
2022-07-25T20:16:06.122Z,28.72
2022-07-25T20:18:35.970Z,28.61
2022-07-25T20:21:04.647Z,28.05
2022-07-25T20:23:33.279Z,28.27
2022-07-25T20:26:02.438Z,28.14
2022-07-25T20:28:31.164Z,27.86
2022-07-25T20:31:01.690Z,28.34
2022-07-25T20:33:30.311Z,28.40
2022-07-25T20:36:00.472Z,28.66
2022-07-25T20:38:31.190Z,27.69
2022-07-25T20:40:59.911Z,27.52
2022-07-25T20:43:28.655Z,27.65
2022-07-25T20:45:57.501Z,27.64
2022-07-25T20:48:26.128Z,27.45
2022-07-25T20:50:54.590Z,26.91
2022-07-25T20:53:24.374Z,26.75
2022-07-25T20:55:52.851Z,26.06
2022-07-25T20:58:21.348Z,26.27
2022-07-25T21:00:49.864Z,26.81
2022-07-25T21:03:18.392Z,26.68
2022-07-25T21:05:46.893Z,26.45
2022-07-25T21:08:15.453Z,25.86
2022-07-25T21:10:45.265Z,25.70
2022-07-25T21:13:13.659Z,25.71
2022-07-25T21:15:46.812Z,25.92
2022-07-25T21:18:15.142Z,25.62
2022-07-25T21:20:43.735Z,25.79
2022-07-25T21:23:12.143Z,25.49
2022-07-25T21:25:40.615Z,24.34
2022-07-25T21:28:10.380Z,23.55
2022-07-25T21:30:41.139Z,22.02
2022-07-25T21:33:14.270Z,21.58
2022-07-25T21:35:49.088Z,21.22
2022-07-25T21:38:26.839Z,20.95
2022-07-25T21:40:56.887Z,20.71
2022-07-25T21:43:26.652Z,21.08
2022-07-25T21:45:55.074Z,21.09
2022-07-25T21:48:43.952Z,21.18
2022-07-25T21:51:18.688Z,21.34
2022-07-25T21:53:48.629Z,21.31
2022-07-25T21:56:17.106Z,21.55
2022-07-25T21:58:46.895Z,21.93
2022-07-25T22:01:15.489Z,21.97
2022-07-25T22:03:43.982Z,22.04
2022-07-25T22:06:12.602Z,22.02
2022-07-25T22:09:17.720Z,21.98
2022-07-25T22:15:35.193Z,22.17
2022-07-25T22:21:51.077Z,21.61
2022-07-25T22:24:19.489Z,21.47
2022-07-25T22:26:48.048Z,21.75
2022-07-25T22:29:16.469Z,21.71
2022-07-25T22:31:46.433Z,22.09
2022-07-25T22:34:15.003Z,22.28
2022-07-25T22:36:43.832Z,22.41
2022-07-25T22:39:12.750Z,22.72
2022-07-25T22:41:41.267Z,22.49
2022-07-25T22:44:09.746Z,22.75
2022-07-25T22:46:38.199Z,22.25
2022-07-25T22:49:08.570Z,22.69
2022-07-25T22:51:37.332Z,22.72
2022-07-25T22:54:06.112Z,22.85
2022-07-25T22:56:34.442Z,23.13
2022-07-25T22:59:02.782Z,22.90
2022-07-25T23:01:31.293Z,23.35
2022-07-25T23:03:59.776Z,23.20
2022-07-25T23:06:29.546Z,22.52
2022-07-25T23:08:57.920Z,22.91
2022-07-25T23:11:27.186Z,22.45
2022-07-25T23:17:43.093Z,22.85
2022-07-25T23:20:12.552Z,22.81
2022-07-25T23:22:42.479Z,22.70
2022-07-25T23:25:14.052Z,22.88
2022-07-25T23:27:42.415Z,22.64
2022-07-25T23:30:11.695Z,22.65
2022-07-25T23:32:40.392Z,22.75
2022-07-25T23:35:09.834Z,22.78
2022-07-25T23:37:38.272Z,22.68
2022-07-25T23:40:09.279Z,22.86
2022-07-25T23:42:37.659Z,22.84
2022-07-25T23:45:07.425Z,22.31
2022-07-25T23:47:39.530Z,22.58
2022-07-25T23:50:10.774Z,22.70
2022-07-25T23:52:39.217Z,22.58
2022-07-25T23:55:09.933Z,22.77
2022-07-25T23:57:38.311Z,22.71
